Time,TemperatureF,DewpointF,PressureIn,WindDirection,WindDirectionDegrees,WindSpeedMPH,WindSpeedGustMPH,Humidity,HourlyPrecipIn,Conditions,Clouds,dailyrainin,SoftwareType,DateUTC
2013-09-02 00:14:00,75.1,73.0,29.72,SSE,152,0.0,2.0,92,0.00,,,0.00,weatherlink.com 1.10,2013-09-02 04:14:00,
2013-09-02 00:29:00,75.3,73.0,29.72,SSW,200,0.0,1.0,92,0.00,,,0.00,weatherlink.com 1.10,2013-09-02 04:29:00,
2013-09-02 00:44:00,75.3,73.0,29.72,SSE,158,0.0,1.0,91,0.00,,,0.00,weatherlink.com 1.10,2013-09-02 04:44:00,
2013-09-02 00:59:00,75.1,73.0,29.71,NW,315,0.0,1.0,92,0.00,,,0.00,weatherlink.com 1.10,2013-09-02 04:59:00,
2013-09-02 01:14:00,75.1,73.0,29.71,SSE,165,0.0,1.0,92,0.00,,,0.00,weatherlink.com 1.10,2013-09-02 05:14:00,
2013-09-02 01:29:00,75.1,73.0,29.72,SSW,211,0.0,1.0,92,0.00,,,0.00,weatherlink.com 1.10,2013-09-02 05:29:00,
2013-09-02 01:44:00,75.1,73.0,29.72,SW,222,0.0,1.0,92,0.00,,,0.00,weatherlink.com 1.10,2013-09-02 05:44:00,
2013-09-02 01:59:00,75.1,73.0,29.71,SW,218,0.0,1.0,92,0.00,,,0.00,weatherlink.com 1.10,2013-09-02 05:59:00,
2013-09-02 02:14:00,75.2,73.0,29.71,SE,139,0.0,1.0,92,0.00,,,0.00,weatherlink.com 1.10,2013-09-02 06:14:00,
2013-09-02 02:29:00,75.3,73.0,29.71,WSW,256,0.0,1.0,91,0.00,,,0.00,weatherlink.com 1.10,2013-09-02 06:29:00,
2013-09-02 02:44:00,75.2,73.0,29.72,WSW,246,0.0,1.0,92,0.00,,,0.00,weatherlink.com 1.10,2013-09-02 06:44:00,
2013-09-02 02:59:00,75.1,73.0,29.70,NW,318,0.0,0.0,92,0.00,,,0.00,weatherlink.com 1.10,2013-09-02 06:59:00,
2013-09-02 03:14:00,75.2,73.0,29.70,NW,321,0.0,0.0,92,0.00,,,0.00,weatherlink.com 1.10,2013-09-02 07:14:00,
2013-09-02 03:29:00,75.1,73.0,29.70,NW,320,0.0,0.0,92,0.00,,,0.00,weatherlink.com 1.10,2013-09-02 07:29:00,
2013-09-02 03:44:00,74.9,73.0,29.69,NW,320,0.0,0.0,92,0.00,,,0.00,weatherlink.com 1.10,2013-09-02 07:44:00,
2013-09-02 03:59:00,74.9,73.0,29.69,NW,320,0.0,1.0,92,0.00,,,0.00,weatherlink.com 1.10,2013-09-02 07:59:00,
2013-09-02 04:14:00,74.7,73.0,29.69,NW,319,0.0,1.0,93,0.00,,,0.00,weatherlink.com 1.10,2013-09-02 08:14:00,
2013-09-02 04:29:00,74.8,73.0,29.69,SW,233,0.0,1.0,93,0.00,,,0.00,weatherlink.com 1.10,2013-09-02 08:29:00,
2013-09-02 04:44:00,75.0,73.0,29.69,SW,233,0.0,1.0,92,0.00,,,0.00,weatherlink.com 1.10,2013-09-02 08:44:00,
2013-09-02 04:59:00,75.1,73.0,29.68,SSE,158,0.0,1.0,92,0.00,,,0.00,weatherlink.com 1.10,2013-09-02 08:59:00,
2013-09-02 05:14:00,75.1,73.0,29.68,WSW,242,0.0,1.0,92,0.00,,,0.00,weatherlink.com 1.10,2013-09-02 09:14:00,
2013-09-02 05:29:00,75.1,73.0,29.69,WSW,256,0.0,0.0,92,0.00,,,0.00,weatherlink.com 1.10,2013-09-02 09:29:00,
2013-09-02 05:44:00,75.2,73.0,29.69,NNE,20,0.0,0.0,92,0.00,,,0.00,weatherlink.com 1.10,2013-09-02 09:44:00,
2013-09-02 05:59:00,79.7,75.0,29.69,SSE,149,2.0,4.0,85,0.00,,,0.00,weatherlink.com 1.10,2013-09-02 09:59:00,
2013-09-02 06:14:00,87.0,75.0,29.69,South,169,3.0,5.0,68,0.00,,,0.00,weatherlink.com 1.10,2013-09-02 10:14:00,
2013-09-02 06:29:00,88.2,75.0,29.69,SSE,153,3.0,4.0,64,0.00,,,0.00,weatherlink.com 1.10,2013-09-02 10:29:00,
2013-09-02 06:44:00,88.4,74.0,29.69,SSE,162,3.0,4.0,63,0.00,,,0.00,weatherlink.com 1.10,2013-09-02 10:44:00,
2013-09-02 06:59:00,88.3,74.0,29.69,SSE,150,3.0,4.0,63,0.00,,,0.00,weatherlink.com 1.10,2013-09-02 10:59:00,
2013-09-02 07:14:00,88.1,74.0,29.69,South,173,2.0,4.0,63,0.00,,,0.00,weatherlink.com 1.10,2013-09-02 11:14:00,
2013-09-02 07:29:00,81.7,72.0,29.70,SSE,163,0.0,1.0,73,0.00,,,0.00,weatherlink.com 1.10,2013-09-02 11:29:00,
2013-09-02 07:44:00,87.8,74.0,29.71,SSE,167,3.0,4.0,64,0.00,,,0.00,weatherlink.com 1.10,2013-09-02 11:44:00,
2013-09-02 07:59:00,82.6,74.0,29.70,SE,146,3.0,3.0,74,0.00,,,0.00,weatherlink.com 1.10,2013-09-02 11:59:00,
2013-09-02 08:14:00,88.5,74.0,29.70,SE,131,4.0,5.0,63,0.00,,,0.00,weatherlink.com 1.10,2013-09-02 12:14:00,
2013-09-02 08:29:00,84.2,74.0,29.70,SE,146,2.0,4.0,72,0.00,,,0.00,weatherlink.com 1.10,2013-09-02 12:29:00,
2013-09-02 08:44:00,89.2,74.0,29.70,SSE,160,0.0,4.0,61,0.00,,,0.00,weatherlink.com 1.10,2013-09-02 12:44:00,
2013-09-02 08:59:00,86.4,74.0,29.70,SSE,157,2.0,4.0,67,0.00,,,0.00,weatherlink.com 1.10,2013-09-02 12:59:00,
2013-09-02 09:14:00,88.3,74.0,29.70,SSE,167,0.0,4.0,62,0.00,,,0.00,weatherlink.com 1.10,2013-09-02 13:14:00,
2013-09-02 09:29:00,85.8,74.0,29.70,ENE,60,3.0,4.0,68,0.00,,,0.00,weatherlink.com 1.10,2013-09-02 13:29:00,
2013-09-02 09:44:00,87.7,74.0,29.70,WSW,253,0.0,5.0,63,0.00,,,0.00,weatherlink.com 1.10,2013-09-02 13:44:00,
2013-09-02 09:59:00,86.9,74.0,29.69,SSE,162,2.0,3.0,66,0.00,,,0.00,weatherlink.com 1.10,2013-09-02 13:59:00,
2013-09-02 10:14:00,88.1,73.0,29.70,SSE,165,0.0,4.0,62,0.00,,,0.00,weatherlink.com 1.10,2013-09-02 14:14:00,
2013-09-02 10:29:00,90.7,74.0,29.70,SSE,149,2.0,4.0,59,0.00,,,0.00,weatherlink.com 1.10,2013-09-02 14:29:00,
2013-09-02 10:44:00,88.3,73.0,29.70,NW,326,0.0,4.0,61,0.00,,,0.00,weatherlink.com 1.10,2013-09-02 14:44:00,
2013-09-02 10:59:00,90.3,74.0,29.70,SSE,152,3.0,4.0,59,0.00,,,0.00,weatherlink.com 1.10,2013-09-02 14:59:00,
2013-09-02 11:14:00,87.3,72.0,29.70,North,1,1.0,3.0,61,0.00,,,0.00,weatherlink.com 1.10,2013-09-02 15:14:00,
2013-09-02 11:29:00,88.7,74.0,29.70,NNE,26,1.0,4.0,62,0.00,,,0.00,weatherlink.com 1.10,2013-09-02 15:29:00,
2013-09-02 11:44:00,84.4,73.0,29.70,NNE,13,0.0,2.0,69,0.00,,,0.00,weatherlink.com 1.10,2013-09-02 15:44:00,
2013-09-02 12:00:00,89.0,74.0,29.69,SSE,164,3.0,4.0,62,0.00,,,0.00,weatherlink.com 1.10,2013-09-02 16:00:00,
2013-09-02 12:15:00,84.3,73.0,29.69,NNE,18,0.0,2.0,69,0.00,,,0.00,weatherlink.com 1.10,2013-09-02 16:15:00,
2013-09-02 12:30:00,89.6,75.0,29.68,ESE,121,3.0,4.0,62,0.00,,,0.00,weatherlink.com 1.10,2013-09-02 16:30:00,
2013-09-02 12:45:00,84.1,71.0,29.68,ESE,108,2.0,4.0,65,0.00,,,0.00,weatherlink.com 1.10,2013-09-02 16:45:00,
2013-09-02 13:00:00,77.3,68.0,29.68,SSE,167,2.0,8.0,73,0.11,,,0.11,weatherlink.com 1.10,2013-09-02 17:00:00,
2013-09-02 13:15:00,71.5,67.0,29.69,North,358,1.0,7.0,86,1.04,,,1.04,weatherlink.com 1.10,2013-09-02 17:15:00,
2013-09-02 13:30:00,75.3,71.0,29.68,SE,134,1.0,4.0,85,1.31,,,1.31,weatherlink.com 1.10,2013-09-02 17:30:00,
2013-09-02 13:45:00,72.6,68.0,29.68,NNW,342,0.0,1.0,86,1.41,,,1.41,weatherlink.com 1.10,2013-09-02 17:45:00,
2013-09-02 14:00:00,76.8,70.0,29.68,SE,146,2.0,3.0,80,1.24,,,1.41,weatherlink.com 1.10,2013-09-02 18:00:00,
2013-09-02 14:15:00,78.2,70.0,29.68,ESE,108,0.0,1.0,77,0.35,,,1.41,weatherlink.com 1.10,2013-09-02 18:15:00,
2013-09-02 14:30:00,79.6,72.0,29.68,SE,146,2.0,3.0,77,0.10,,,1.41,weatherlink.com 1.10,2013-09-02 18:30:00,
2013-09-02 14:45:00,79.5,71.0,29.68,SE,142,0.0,3.0,76,0.01,,,1.42,weatherlink.com 1.10,2013-09-02 18:45:00,
2013-09-02 15:00:00,79.9,74.0,29.66,SSE,158,2.0,3.0,81,0.02,,,1.43,weatherlink.com 1.10,2013-09-02 19:00:00,
2013-09-02 15:15:00,81.9,73.0,29.66,SSE,152,2.0,3.0,74,0.03,,,1.44,weatherlink.com 1.10,2013-09-02 19:15:00,
2013-09-02 15:30:00,79.5,74.0,29.65,SSE,158,3.0,6.0,82,0.03,,,1.44,weatherlink.com 1.10,2013-09-02 19:30:00,
2013-09-02 15:45:00,82.1,74.0,29.65,SSE,156,0.0,4.0,76,0.02,,,1.44,weatherlink.com 1.10,2013-09-02 19:45:00,
2013-09-02 16:00:00,83.0,76.0,29.65,SSE,162,2.0,4.0,80,0.02,,,1.45,weatherlink.com 1.10,2013-09-02 20:00:00,
2013-09-02 16:15:00,84.9,74.0,29.65,WNW,283,1.0,3.0,70,0.01,,,1.45,weatherlink.com 1.10,2013-09-02 20:15:00,
2013-09-02 16:30:00,84.6,76.0,29.65,SSE,147,3.0,4.0,74,0.01,,,1.45,weatherlink.com 1.10,2013-09-02 20:30:00,
2013-09-02 16:45:00,84.7,74.0,29.64,WNW,301,0.0,4.0,71,0.01,,,1.45,weatherlink.com 1.10,2013-09-02 20:45:00,
2013-09-02 17:00:00,85.4,74.0,29.65,SE,132,4.0,4.0,68,0.00,,,1.45,weatherlink.com 1.10,2013-09-02 21:00:00,
2013-09-02 17:15:00,87.4,73.0,29.65,NNE,20,0.0,4.0,63,0.00,,,1.45,weatherlink.com 1.10,2013-09-02 21:15:00,
2013-09-02 17:30:00,84.9,74.0,29.65,SE,138,2.0,5.0,70,0.00,,,1.45,weatherlink.com 1.10,2013-09-02 21:30:00,
2013-09-02 17:45:00,86.8,73.0,29.65,ESE,115,2.0,5.0,63,0.00,,,1.45,weatherlink.com 1.10,2013-09-02 21:45:00,
2013-09-02 18:00:00,81.7,73.0,29.64,SE,146,3.0,4.0,75,0.00,,,1.45,weatherlink.com 1.10,2013-09-02 22:00:00,
2013-09-02 18:15:00,87.9,73.0,29.64,SSE,168,2.0,4.0,61,0.00,,,1.45,weatherlink.com 1.10,2013-09-02 22:15:00,
2013-09-02 18:30:00,81.6,72.0,29.64,SSE,148,1.0,3.0,72,0.00,,,1.45,weatherlink.com 1.10,2013-09-02 22:30:00,
2013-09-02 18:45:00,89.0,73.0,29.64,South,170,0.0,4.0,59,0.00,,,1.45,weatherlink.com 1.10,2013-09-02 22:45:00,
2013-09-02 19:00:00,81.8,72.0,29.64,SSE,160,0.0,2.0,72,0.00,,,1.45,weatherlink.com 1.10,2013-09-02 23:00:00,
2013-09-02 19:15:00,88.3,73.0,29.64,SSE,160,2.0,3.0,61,0.00,,,1.45,weatherlink.com 1.10,2013-09-02 23:15:00,
2013-09-02 19:30:00,81.6,73.0,29.64,SW,226,0.0,1.0,76,0.00,,,1.45,weatherlink.com 1.10,2013-09-02 23:30:00,
2013-09-02 19:45:00,86.2,75.0,29.63,SSE,160,3.0,4.0,70,0.00,,,1.45,weatherlink.com 1.10,2013-09-02 23:45:00,
2013-09-02 20:00:00,82.1,74.0,29.64,SW,214,0.0,2.0,75,0.00,,,1.45,weatherlink.com 1.10,2013-09-03 00:00:00,
2013-09-02 20:15:00,82.0,75.0,29.64,SSE,166,2.0,3.0,78,0.00,,,1.45,weatherlink.com 1.10,2013-09-03 00:15:00,
2013-09-02 20:30:00,81.2,73.0,29.64,SSE,163,0.0,4.0,77,0.00,,,1.45,weatherlink.com 1.10,2013-09-03 00:30:00,
2013-09-02 20:45:00,78.0,73.0,29.64,SSE,153,1.0,4.0,85,0.00,,,1.45,weatherlink.com 1.10,2013-09-03 00:45:00,
2013-09-02 21:00:00,76.9,73.0,29.64,West,275,1.0,4.0,87,0.00,,,1.45,weatherlink.com 1.10,2013-09-03 01:00:00,
2013-09-02 21:15:00,76.3,72.0,29.64,South,181,1.0,4.0,87,0.00,,,1.45,weatherlink.com 1.10,2013-09-03 01:15:00,
2013-09-02 21:30:00,76.2,72.0,29.64,SSE,167,0.0,5.0,87,0.00,,,1.45,weatherlink.com 1.10,2013-09-03 01:30:00,
2013-09-02 21:45:00,76.1,72.0,29.65,SSE,163,0.0,3.0,87,0.00,,,1.45,weatherlink.com 1.10,2013-09-03 01:45:00,
2013-09-02 22:00:00,76.2,72.0,29.65,SW,217,0.0,4.0,86,0.00,,,1.45,weatherlink.com 1.10,2013-09-03 02:00:00,
2013-09-02 22:15:00,76.0,72.0,29.65,South,169,0.0,3.0,86,0.00,,,1.45,weatherlink.com 1.10,2013-09-03 02:15:00,
2013-09-02 22:30:00,75.9,72.0,29.65,South,180,2.0,3.0,86,0.00,,,1.45,weatherlink.com 1.10,2013-09-03 02:30:00,
2013-09-02 22:45:00,75.9,72.0,29.65,South,179,2.0,6.0,86,0.00,,,1.45,weatherlink.com 1.10,2013-09-03 02:45:00,
2013-09-02 23:00:00,76.0,72.0,29.66,South,191,2.0,5.0,86,0.00,,,1.45,weatherlink.com 1.10,2013-09-03 03:00:00,
2013-09-02 23:15:00,76.0,72.0,29.65,SE,143,1.0,7.0,86,0.00,,,1.45,weatherlink.com 1.10,2013-09-03 03:15:00,
2013-09-02 23:30:00,75.8,71.0,29.66,South,179,1.0,6.0,85,0.00,,,1.45,weatherlink.com 1.10,2013-09-03 03:30:00,
2013-09-02 23:45:00,75.7,71.0,29.66,South,172,2.0,4.0,85,0.00,,,1.45,weatherlink.com 1.10,2013-09-03 03:45:00,